sensor_id;sensor_type;location;lat;lon;timestamp;P1;durP1;ratioP1;P2;durP2;ratioP2
34567;SDS011;20806;50.746;7.116;2022-09-03T00:00:59;0.10;;;0.10;;
34567;SDS011;20806;50.746;7.116;2022-09-03T00:03:32;0.10;;;0.10;;
34567;SDS011;20806;50.746;7.116;2022-09-03T00:06:06;0.10;;;0.10;;
34567;SDS011;20806;50.746;7.116;2022-09-03T00:08:36;0.10;;;0.10;;
34567;SDS011;20806;50.746;7.116;2022-09-03T00:13:38;0.20;;;0.00;;
34567;SDS011;20806;50.746;7.116;2022-09-03T00:16:05;0.10;;;0.10;;
34567;SDS011;20806;50.746;7.116;2022-09-03T00:18:36;0.10;;;0.10;;
34567;SDS011;20806;50.746;7.116;2022-09-03T00:21:07;0.00;;;0.00;;
34567;SDS011;20806;50.746;7.116;2022-09-03T00:23:34;0.00;;;0.00;;
34567;SDS011;20806;50.746;7.116;2022-09-03T00:26:13;0.10;;;0.10;;
34567;SDS011;20806;50.746;7.116;2022-09-03T00:31:13;0.00;;;0.00;;
34567;SDS011;20806;50.746;7.116;2022-09-03T00:33:42;0.50;;;0.10;;
34567;SDS011;20806;50.746;7.116;2022-09-03T00:38:36;0.68;;;0.10;;
34567;SDS011;20806;50.746;7.116;2022-09-03T00:43:40;0.20;;;0.10;;
34567;SDS011;20806;50.746;7.116;2022-09-03T00:46:22;0.10;;;0.10;;
34567;SDS011;20806;50.746;7.116;2022-09-03T00:49:04;0.10;;;0.10;;
34567;SDS011;20806;50.746;7.116;2022-09-03T01:00:21;0.10;;;0.10;;
34567;SDS011;20806;50.746;7.116;2022-09-03T01:05:12;0.10;;;0.10;;
34567;SDS011;20806;50.746;7.116;2022-09-03T01:18:18;0.10;;;0.10;;
34567;SDS011;20806;50.746;7.116;2022-09-03T01:31:29;0.10;;;0.07;;
34567;SDS011;20806;50.746;7.116;2022-09-03T01:36:31;0.08;;;0.00;;
34567;SDS011;20806;50.746;7.116;2022-09-03T01:38:59;0.10;;;0.00;;
34567;SDS011;20806;50.746;7.116;2022-09-03T01:49:50;0.00;;;0.00;;
34567;SDS011;20806;50.746;7.116;2022-09-03T01:52:25;0.10;;;0.10;;
34567;SDS011;20806;50.746;7.116;2022-09-03T01:55:01;0.08;;;0.08;;
34567;SDS011;20806;50.746;7.116;2022-09-03T01:57:45;0.10;;;0.00;;
34567;SDS011;20806;50.746;7.116;2022-09-03T02:00:17;0.10;;;0.10;;
34567;SDS011;20806;50.746;7.116;2022-09-03T02:02:47;0.10;;;0.10;;
34567;SDS011;20806;50.746;7.116;2022-09-03T02:05:25;0.00;;;0.00;;
34567;SDS011;20806;50.746;7.116;2022-09-03T02:10:25;0.07;;;0.07;;
34567;SDS011;20806;50.746;7.116;2022-09-03T02:12:56;0.00;;;0.00;;
34567;SDS011;20806;50.746;7.116;2022-09-03T02:15:24;0.17;;;0.00;;
34567;SDS011;20806;50.746;7.116;2022-09-03T02:17:52;0.00;;;0.00;;
34567;SDS011;20806;50.746;7.116;2022-09-03T02:20:21;0.00;;;0.00;;
34567;SDS011;20806;50.746;7.116;2022-09-03T02:22:47;0.05;;;0.00;;
34567;SDS011;20806;50.746;7.116;2022-09-03T02:25:15;0.00;;;0.00;;
34567;SDS011;20806;50.746;7.116;2022-09-03T02:27:42;0.10;;;0.10;;
34567;SDS011;20806;50.746;7.116;2022-09-03T02:30:08;0.00;;;0.00;;
34567;SDS011;20806;50.746;7.116;2022-09-03T02:32:35;0.00;;;0.00;;
34567;SDS011;20806;50.746;7.116;2022-09-03T02:35:01;0.00;;;0.00;;
34567;SDS011;20806;50.746;7.116;2022-09-03T02:37:29;0.00;;;0.00;;
34567;SDS011;20806;50.746;7.116;2022-09-03T02:39:55;0.00;;;0.00;;
34567;SDS011;20806;50.746;7.116;2022-09-03T02:42:21;0.10;;;0.10;;
34567;SDS011;20806;50.746;7.116;2022-09-03T02:44:52;0.10;;;0.10;;
34567;SDS011;20806;50.746;7.116;2022-09-03T02:47:20;0.00;;;0.00;;
34567;SDS011;20806;50.746;7.116;2022-09-03T02:49:47;0.00;;;0.00;;
34567;SDS011;20806;50.746;7.116;2022-09-03T02:52:13;0.10;;;0.10;;
34567;SDS011;20806;50.746;7.116;2022-09-03T02:54:45;0.10;;;0.10;;
34567;SDS011;20806;50.746;7.116;2022-09-03T02:57:12;0.10;;;0.10;;
34567;SDS011;20806;50.746;7.116;2022-09-03T02:59:38;0.00;;;0.00;;
34567;SDS011;20806;50.746;7.116;2022-09-03T03:02:05;0.00;;;0.00;;
34567;SDS011;20806;50.746;7.116;2022-09-03T03:04:32;0.10;;;0.10;;
34567;SDS011;20806;50.746;7.116;2022-09-03T03:06:58;0.00;;;0.00;;
34567;SDS011;20806;50.746;7.116;2022-09-03T03:09:24;0.00;;;0.00;;
34567;SDS011;20806;50.746;7.116;2022-09-03T03:11:51;0.08;;;0.00;;
34567;SDS011;20806;50.746;7.116;2022-09-03T03:14:19;0.00;;;0.00;;
34567;SDS011;20806;50.746;7.116;2022-09-03T03:16:45;0.00;;;0.00;;
34567;SDS011;20806;50.746;7.116;2022-09-03T03:19:11;0.00;;;0.00;;
34567;SDS011;20806;50.746;7.116;2022-09-03T03:21:37;0.30;;;0.10;;
34567;SDS011;20806;50.746;7.116;2022-09-03T03:24:03;0.10;;;0.10;;
34567;SDS011;20806;50.746;7.116;2022-09-03T03:26:29;0.10;;;0.10;;
34567;SDS011;20806;50.746;7.116;2022-09-03T03:28:56;0.00;;;0.00;;
34567;SDS011;20806;50.746;7.116;2022-09-03T03:31:24;0.10;;;0.10;;
34567;SDS011;20806;50.746;7.116;2022-09-03T03:33:54;0.10;;;0.10;;
34567;SDS011;20806;50.746;7.116;2022-09-03T03:36:21;0.00;;;0.00;;
34567;SDS011;20806;50.746;7.116;2022-09-03T03:38:48;0.07;;;0.07;;
34567;SDS011;20806;50.746;7.116;2022-09-03T03:43:41;0.00;;;0.00;;
34567;SDS011;20806;50.746;7.116;2022-09-03T03:46:07;0.00;;;0.00;;
34567;SDS011;20806;50.746;7.116;2022-09-03T03:48:34;0.10;;;0.10;;
34567;SDS011;20806;50.746;7.116;2022-09-03T03:51:02;0.10;;;0.10;;
34567;SDS011;20806;50.746;7.116;2022-09-03T03:53:32;0.00;;;0.00;;
34567;SDS011;20806;50.746;7.116;2022-09-03T03:56:00;0.10;;;0.10;;
34567;SDS011;20806;50.746;7.116;2022-09-03T03:58:27;0.00;;;0.00;;
34567;SDS011;20806;50.746;7.116;2022-09-03T04:00:53;0.10;;;0.00;;
34567;SDS011;20806;50.746;7.116;2022-09-03T04:03:19;0.10;;;0.10;;
34567;SDS011;20806;50.746;7.116;2022-09-03T04:05:55;0.10;;;0.10;;
34567;SDS011;20806;50.746;7.116;2022-09-03T04:08:21;0.00;;;0.00;;
34567;SDS011;20806;50.746;7.116;2022-09-03T04:10:47;0.10;;;0.10;;
34567;SDS011;20806;50.746;7.116;2022-09-03T04:13:14;0.00;;;0.00;;
34567;SDS011;20806;50.746;7.116;2022-09-03T04:15:41;0.00;;;0.00;;
34567;SDS011;20806;50.746;7.116;2022-09-03T04:18:07;0.00;;;0.00;;
34567;SDS011;20806;50.746;7.116;2022-09-03T04:20:36;0.20;;;0.10;;
34567;SDS011;20806;50.746;7.116;2022-09-03T04:23:03;0.00;;;0.00;;
34567;SDS011;20806;50.746;7.116;2022-09-03T04:25:29;0.10;;;0.10;;
34567;SDS011;20806;50.746;7.116;2022-09-03T04:27:55;0.10;;;0.10;;
34567;SDS011;20806;50.746;7.116;2022-09-03T04:30:21;0.10;;;0.10;;
34567;SDS011;20806;50.746;7.116;2022-09-03T04:32:50;0.10;;;0.00;;
34567;SDS011;20806;50.746;7.116;2022-09-03T04:35:20;0.10;;;0.10;;
34567;SDS011;20806;50.746;7.116;2022-09-03T04:37:47;0.00;;;0.00;;
34567;SDS011;20806;50.746;7.116;2022-09-03T04:40:13;0.00;;;0.00;;
34567;SDS011;20806;50.746;7.116;2022-09-03T04:42:39;0.10;;;0.10;;
34567;SDS011;20806;50.746;7.116;2022-09-03T04:45:07;0.10;;;0.10;;
34567;SDS011;20806;50.746;7.116;2022-09-03T04:47:33;0.10;;;0.10;;
34567;SDS011;20806;50.746;7.116;2022-09-03T04:50:01;0.10;;;0.10;;
34567;SDS011;20806;50.746;7.116;2022-09-03T04:52:28;0.10;;;0.10;;
34567;SDS011;20806;50.746;7.116;2022-09-03T04:54:56;0.30;;;0.10;;
34567;SDS011;20806;50.746;7.116;2022-09-03T04:57:22;0.10;;;0.10;;
34567;SDS011;20806;50.746;7.116;2022-09-03T04:59:48;0.10;;;0.10;;
34567;SDS011;20806;50.746;7.116;2022-09-03T05:02:14;0.10;;;0.10;;
34567;SDS011;20806;50.746;7.116;2022-09-03T05:04:40;0.00;;;0.00;;
34567;SDS011;20806;50.746;7.116;2022-09-03T05:07:07;0.08;;;0.08;;
34567;SDS011;20806;50.746;7.116;2022-09-03T05:09:33;0.10;;;0.10;;
34567;SDS011;20806;50.746;7.116;2022-09-03T05:11:59;0.10;;;0.10;;
34567;SDS011;20806;50.746;7.116;2022-09-03T05:14:26;0.10;;;0.10;;
34567;SDS011;20806;50.746;7.116;2022-09-03T05:16:52;0.00;;;0.00;;
34567;SDS011;20806;50.746;7.116;2022-09-03T05:19:18;0.10;;;0.10;;
34567;SDS011;20806;50.746;7.116;2022-09-03T05:21:44;0.10;;;0.10;;
34567;SDS011;20806;50.746;7.116;2022-09-03T05:24:10;0.05;;;0.00;;
34567;SDS011;20806;50.746;7.116;2022-09-03T05:26:37;0.00;;;0.00;;
34567;SDS011;20806;50.746;7.116;2022-09-03T05:29:05;0.00;;;0.00;;
34567;SDS011;20806;50.746;7.116;2022-09-03T05:31:32;0.10;;;0.10;;
34567;SDS011;20806;50.746;7.116;2022-09-03T05:33:59;0.00;;;0.00;;
34567;SDS011;20806;50.746;7.116;2022-09-03T05:36:29;0.10;;;0.10;;
34567;SDS011;20806;50.746;7.116;2022-09-03T05:38:56;0.10;;;0.00;;
34567;SDS011;20806;50.746;7.116;2022-09-03T05:41:22;0.10;;;0.10;;
34567;SDS011;20806;50.746;7.116;2022-09-03T05:43:49;0.00;;;0.00;;
34567;SDS011;20806;50.746;7.116;2022-09-03T05:46:19;0.00;;;0.00;;
34567;SDS011;20806;50.746;7.116;2022-09-03T05:48:45;0.00;;;0.00;;
34567;SDS011;20806;50.746;7.116;2022-09-03T05:51:12;0.10;;;0.10;;
34567;SDS011;20806;50.746;7.116;2022-09-03T05:53:42;0.10;;;0.05;;
34567;SDS011;20806;50.746;7.116;2022-09-03T05:56:09;0.00;;;0.00;;
34567;SDS011;20806;50.746;7.116;2022-09-03T05:58:39;0.10;;;0.10;;
34567;SDS011;20806;50.746;7.116;2022-09-03T06:01:11;0.10;;;0.00;;
34567;SDS011;20806;50.746;7.116;2022-09-03T06:03:38;0.10;;;0.10;;
34567;SDS011;20806;50.746;7.116;2022-09-03T06:06:04;0.10;;;0.10;;
34567;SDS011;20806;50.746;7.116;2022-09-03T06:08:31;0.10;;;0.10;;
34567;SDS011;20806;50.746;7.116;2022-09-03T06:10:59;0.60;;;0.10;;
34567;SDS011;20806;50.746;7.116;2022-09-03T06:13:28;0.10;;;0.10;;
34567;SDS011;20806;50.746;7.116;2022-09-03T06:15:58;0.10;;;0.10;;
34567;SDS011;20806;50.746;7.116;2022-09-03T06:18:26;0.10;;;0.10;;
34567;SDS011;20806;50.746;7.116;2022-09-03T06:20:54;0.10;;;0.10;;
34567;SDS011;20806;50.746;7.116;2022-09-03T06:23:21;0.10;;;0.10;;
34567;SDS011;20806;50.746;7.116;2022-09-03T06:25:58;0.10;;;0.10;;
34567;SDS011;20806;50.746;7.116;2022-09-03T06:28:25;0.00;;;0.00;;
34567;SDS011;20806;50.746;7.116;2022-09-03T06:30:52;0.20;;;0.13;;
34567;SDS011;20806;50.746;7.116;2022-09-03T06:33:18;0.50;;;0.00;;
34567;SDS011;20806;50.746;7.116;2022-09-03T06:35:44;0.10;;;0.10;;
34567;SDS011;20806;50.746;7.116;2022-09-03T06:38:10;0.10;;;0.10;;
34567;SDS011;20806;50.746;7.116;2022-09-03T06:40:37;0.10;;;0.10;;
34567;SDS011;20806;50.746;7.116;2022-09-03T06:43:04;0.15;;;0.10;;
34567;SDS011;20806;50.746;7.116;2022-09-03T06:45:31;1.27;;;0.00;;
34567;SDS011;20806;50.746;7.116;2022-09-03T06:47:58;0.10;;;0.10;;
34567;SDS011;20806;50.746;7.116;2022-09-03T06:50:24;0.20;;;0.10;;
34567;SDS011;20806;50.746;7.116;2022-09-03T06:52:52;0.10;;;0.10;;
34567;SDS011;20806;50.746;7.116;2022-09-03T06:55:19;0.03;;;0.03;;
34567;SDS011;20806;50.746;7.116;2022-09-03T06:57:46;0.10;;;0.10;;
34567;SDS011;20806;50.746;7.116;2022-09-03T07:00:12;0.17;;;0.10;;
34567;SDS011;20806;50.746;7.116;2022-09-03T07:02:39;0.30;;;0.10;;
34567;SDS011;20806;50.746;7.116;2022-09-03T07:05:06;0.10;;;0.10;;
34567;SDS011;20806;50.746;7.116;2022-09-03T07:07:32;0.80;;;0.10;;
34567;SDS011;20806;50.746;7.116;2022-09-03T07:09:58;0.10;;;0.10;;
34567;SDS011;20806;50.746;7.116;2022-09-03T07:12:25;0.10;;;0.10;;
34567;SDS011;20806;50.746;7.116;2022-09-03T07:14:51;0.10;;;0.10;;
34567;SDS011;20806;50.746;7.116;2022-09-03T07:17:19;0.10;;;0.10;;
34567;SDS011;20806;50.746;7.116;2022-09-03T07:19:45;0.20;;;0.20;;
34567;SDS011;20806;50.746;7.116;2022-09-03T07:22:11;0.10;;;0.10;;
34567;SDS011;20806;50.746;7.116;2022-09-03T07:24:37;0.10;;;0.10;;
34567;SDS011;20806;50.746;7.116;2022-09-03T07:27:03;0.10;;;0.10;;
34567;SDS011;20806;50.746;7.116;2022-09-03T07:29:29;0.10;;;0.10;;
34567;SDS011;20806;50.746;7.116;2022-09-03T07:31:55;0.90;;;0.10;;
34567;SDS011;20806;50.746;7.116;2022-09-03T07:34:21;0.35;;;0.20;;
34567;SDS011;20806;50.746;7.116;2022-09-03T07:36:50;0.38;;;0.20;;
34567;SDS011;20806;50.746;7.116;2022-09-03T07:39:18;0.20;;;0.10;;
34567;SDS011;20806;50.746;7.116;2022-09-03T07:41:45;0.20;;;0.13;;
34567;SDS011;20806;50.746;7.116;2022-09-03T07:44:12;0.10;;;0.10;;
34567;SDS011;20806;50.746;7.116;2022-09-03T07:46:39;0.13;;;0.13;;
34567;SDS011;20806;50.746;7.116;2022-09-03T07:49:05;0.30;;;0.10;;
34567;SDS011;20806;50.746;7.116;2022-09-03T07:51:35;0.10;;;0.10;;
34567;SDS011;20806;50.746;7.116;2022-09-03T07:54:02;0.10;;;0.10;;
34567;SDS011;20806;50.746;7.116;2022-09-03T07:56:32;0.60;;;0.13;;
34567;SDS011;20806;50.746;7.116;2022-09-03T07:58:59;0.30;;;0.15;;
34567;SDS011;20806;50.746;7.116;2022-09-03T08:01:27;0.40;;;0.10;;
34567;SDS011;20806;50.746;7.116;2022-09-03T08:03:55;0.10;;;0.10;;
34567;SDS011;20806;50.746;7.116;2022-09-03T08:06:22;0.70;;;0.10;;
34567;SDS011;20806;50.746;7.116;2022-09-03T08:08:53;0.20;;;0.10;;
34567;SDS011;20806;50.746;7.116;2022-09-03T08:11:20;0.13;;;0.10;;
34567;SDS011;20806;50.746;7.116;2022-09-03T08:13:47;0.10;;;0.10;;
34567;SDS011;20806;50.746;7.116;2022-09-03T08:16:15;0.20;;;0.13;;
34567;SDS011;20806;50.746;7.116;2022-09-03T08:18:42;0.10;;;0.10;;
34567;SDS011;20806;50.746;7.116;2022-09-03T08:21:11;0.10;;;0.10;;
34567;SDS011;20806;50.746;7.116;2022-09-03T08:23:40;0.10;;;0.10;;
34567;SDS011;20806;50.746;7.116;2022-09-03T08:26:06;0.20;;;0.20;;
34567;SDS011;20806;50.746;7.116;2022-09-03T08:28:33;0.20;;;0.10;;
34567;SDS011;20806;50.746;7.116;2022-09-03T08:31:06;0.80;;;0.10;;
34567;SDS011;20806;50.746;7.116;2022-09-03T08:33:33;0.20;;;0.10;;
34567;SDS011;20806;50.746;7.116;2022-09-03T08:36:05;0.20;;;0.20;;
34567;SDS011;20806;50.746;7.116;2022-09-03T08:38:33;0.10;;;0.10;;
34567;SDS011;20806;50.746;7.116;2022-09-03T08:44:23;0.20;;;0.20;;
34567;SDS011;20806;50.746;7.116;2022-09-03T08:46:31;0.20;;;0.20;;
34567;SDS011;20806;50.746;7.116;2022-09-03T08:48:58;0.20;;;0.20;;
34567;SDS011;20806;50.746;7.116;2022-09-03T08:51:24;0.20;;;0.10;;
34567;SDS011;20806;50.746;7.116;2022-09-03T08:53:52;0.25;;;0.20;;
34567;SDS011;20806;50.746;7.116;2022-09-03T08:56:25;0.20;;;0.15;;
34567;SDS011;20806;50.746;7.116;2022-09-03T08:58:52;0.10;;;0.10;;
34567;SDS011;20806;50.746;7.116;2022-09-03T09:01:24;0.20;;;0.10;;
34567;SDS011;20806;50.746;7.116;2022-09-03T09:11:57;0.20;;;0.20;;
34567;SDS011;20806;50.746;7.116;2022-09-03T09:14:32;0.30;;;0.30;;
34567;SDS011;20806;50.746;7.116;2022-09-03T09:25:03;0.20;;;0.10;;
34567;SDS011;20806;50.746;7.116;2022-09-03T09:27:31;0.10;;;0.10;;
34567;SDS011;20806;50.746;7.116;2022-09-03T09:29:57;0.10;;;0.10;;
34567;SDS011;20806;50.746;7.116;2022-09-03T09:32:25;0.10;;;0.10;;
34567;SDS011;20806;50.746;7.116;2022-09-03T09:34:52;0.10;;;0.10;;
34567;SDS011;20806;50.746;7.116;2022-09-03T09:37:19;0.03;;;0.03;;
34567;SDS011;20806;50.746;7.116;2022-09-03T09:39:53;0.10;;;0.10;;
34567;SDS011;20806;50.746;7.116;2022-09-03T09:42:20;0.10;;;0.10;;
34567;SDS011;20806;50.746;7.116;2022-09-03T09:44:46;0.35;;;0.10;;
34567;SDS011;20806;50.746;7.116;2022-09-03T09:47:23;0.20;;;0.10;;
34567;SDS011;20806;50.746;7.116;2022-09-03T09:52:16;0.20;;;0.17;;
34567;SDS011;20806;50.746;7.116;2022-09-03T09:54:43;0.30;;;0.10;;
34567;SDS011;20806;50.746;7.116;2022-09-03T09:57:14;0.13;;;0.13;;
34567;SDS011;20806;50.746;7.116;2022-09-03T09:59:42;0.28;;;0.20;;
34567;SDS011;20806;50.746;7.116;2022-09-03T10:02:11;0.40;;;0.20;;
34567;SDS011;20806;50.746;7.116;2022-09-03T10:04:37;0.40;;;0.20;;
34567;SDS011;20806;50.746;7.116;2022-09-03T10:10:02;0.20;;;0.20;;
34567;SDS011;20806;50.746;7.116;2022-09-03T10:12:38;0.50;;;0.10;;
34567;SDS011;20806;50.746;7.116;2022-09-03T10:25:42;0.40;;;0.40;;
34567;SDS011;20806;50.746;7.116;2022-09-03T10:28:16;0.20;;;0.20;;
34567;SDS011;20806;50.746;7.116;2022-09-03T10:30:53;0.20;;;0.20;;
34567;SDS011;20806;50.746;7.116;2022-09-03T10:33:23;0.10;;;0.10;;
34567;SDS011;20806;50.746;7.116;2022-09-03T10:35:51;0.20;;;0.20;;
34567;SDS011;20806;50.746;7.116;2022-09-03T10:38:28;0.10;;;0.10;;
34567;SDS011;20806;50.746;7.116;2022-09-03T10:41:07;0.30;;;0.10;;
34567;SDS011;20806;50.746;7.116;2022-09-03T10:51:05;1.02;;;0.20;;
34567;SDS011;20806;50.746;7.116;2022-09-03T11:07:18;0.20;;;0.20;;
34567;SDS011;20806;50.746;7.116;2022-09-03T11:09:47;0.30;;;0.22;;
34567;SDS011;20806;50.746;7.116;2022-09-03T11:12:18;0.20;;;0.20;;
34567;SDS011;20806;50.746;7.116;2022-09-03T11:14:49;0.60;;;0.30;;
34567;SDS011;20806;50.746;7.116;2022-09-03T11:17:22;0.63;;;0.30;;
34567;SDS011;20806;50.746;7.116;2022-09-03T11:19:52;0.25;;;0.20;;
34567;SDS011;20806;50.746;7.116;2022-09-03T11:22:20;0.50;;;0.30;;
34567;SDS011;20806;50.746;7.116;2022-09-03T11:24:49;0.65;;;0.20;;
34567;SDS011;20806;50.746;7.116;2022-09-03T11:29:58;0.20;;;0.20;;
34567;SDS011;20806;50.746;7.116;2022-09-03T11:32:39;0.20;;;0.20;;
34567;SDS011;20806;50.746;7.116;2022-09-03T11:35:13;0.30;;;0.25;;
34567;SDS011;20806;50.746;7.116;2022-09-03T11:37:49;0.43;;;0.20;;
34567;SDS011;20806;50.746;7.116;2022-09-03T11:40:17;0.22;;;0.20;;
34567;SDS011;20806;50.746;7.116;2022-09-03T11:42:45;0.20;;;0.20;;
34567;SDS011;20806;50.746;7.116;2022-09-03T11:47:56;0.20;;;0.20;;
34567;SDS011;20806;50.746;7.116;2022-09-03T11:52:49;0.20;;;0.20;;
34567;SDS011;20806;50.746;7.116;2022-09-03T11:55:23;0.40;;;0.20;;
34567;SDS011;20806;50.746;7.116;2022-09-03T11:57:50;0.20;;;0.20;;
34567;SDS011;20806;50.746;7.116;2022-09-03T12:00:17;0.20;;;0.20;;
34567;SDS011;20806;50.746;7.116;2022-09-03T12:02:47;0.20;;;0.20;;
34567;SDS011;20806;50.746;7.116;2022-09-03T12:18:31;0.10;;;0.10;;
34567;SDS011;20806;50.746;7.116;2022-09-03T12:23:34;0.10;;;0.10;;
34567;SDS011;20806;50.746;7.116;2022-09-03T12:26:07;0.00;;;0.00;;
34567;SDS011;20806;50.746;7.116;2022-09-03T12:28:34;0.08;;;0.05;;
34567;SDS011;20806;50.746;7.116;2022-09-03T12:31:05;0.38;;;0.10;;
34567;SDS011;20806;50.746;7.116;2022-09-03T12:33:33;0.10;;;0.07;;
34567;SDS011;20806;50.746;7.116;2022-09-03T12:36:00;0.20;;;0.10;;
34567;SDS011;20806;50.746;7.116;2022-09-03T12:38:27;0.20;;;0.00;;
34567;SDS011;20806;50.746;7.116;2022-09-03T12:40:58;0.10;;;0.10;;
34567;SDS011;20806;50.746;7.116;2022-09-03T12:43:27;0.10;;;0.10;;
34567;SDS011;20806;50.746;7.116;2022-09-03T12:45:53;0.10;;;0.10;;
34567;SDS011;20806;50.746;7.116;2022-09-03T12:48:20;0.10;;;0.10;;
34567;SDS011;20806;50.746;7.116;2022-09-03T12:50:47;0.20;;;0.00;;
34567;SDS011;20806;50.746;7.116;2022-09-03T12:53:14;0.30;;;0.10;;
34567;SDS011;20806;50.746;7.116;2022-09-03T12:55:50;0.10;;;0.10;;
34567;SDS011;20806;50.746;7.116;2022-09-03T12:58:41;0.10;;;0.10;;
34567;SDS011;20806;50.746;7.116;2022-09-03T13:01:08;0.10;;;0.10;;
34567;SDS011;20806;50.746;7.116;2022-09-03T13:03:49;0.10;;;0.10;;
34567;SDS011;20806;50.746;7.116;2022-09-03T13:06:22;0.30;;;0.10;;
34567;SDS011;20806;50.746;7.116;2022-09-03T13:08:57;0.17;;;0.17;;
34567;SDS011;20806;50.746;7.116;2022-09-03T13:11:24;0.20;;;0.20;;
34567;SDS011;20806;50.746;7.116;2022-09-03T13:13:51;0.10;;;0.10;;
34567;SDS011;20806;50.746;7.116;2022-09-03T13:27:12;0.10;;;0.10;;
34567;SDS011;20806;50.746;7.116;2022-09-03T13:29:36;0.20;;;0.10;;
34567;SDS011;20806;50.746;7.116;2022-09-03T13:34:53;0.10;;;0.10;;
34567;SDS011;20806;50.746;7.116;2022-09-03T13:39:54;0.10;;;0.10;;
34567;SDS011;20806;50.746;7.116;2022-09-03T13:44:58;0.13;;;0.13;;
34567;SDS011;20806;50.746;7.116;2022-09-03T13:50:05;0.70;;;0.20;;
34567;SDS011;20806;50.746;7.116;2022-09-03T13:53:01;0.20;;;0.20;;
34567;SDS011;20806;50.746;7.116;2022-09-03T13:55:48;0.17;;;0.17;;
34567;SDS011;20806;50.746;7.116;2022-09-03T13:58:27;0.32;;;0.30;;
34567;SDS011;20806;50.746;7.116;2022-09-03T14:03:35;0.20;;;0.20;;
34567;SDS011;20806;50.746;7.116;2022-09-03T14:18:52;0.10;;;0.10;;
34567;SDS011;20806;50.746;7.116;2022-09-03T14:21:24;0.20;;;0.20;;
34567;SDS011;20806;50.746;7.116;2022-09-03T14:26:31;0.20;;;0.20;;
34567;SDS011;20806;50.746;7.116;2022-09-03T14:29:06;0.20;;;0.10;;
34567;SDS011;20806;50.746;7.116;2022-09-03T14:37:23;0.10;;;0.10;;
34567;SDS011;20806;50.746;7.116;2022-09-03T14:39:57;0.60;;;0.10;;
34567;SDS011;20806;50.746;7.116;2022-09-03T14:42:28;0.10;;;0.10;;
34567;SDS011;20806;50.746;7.116;2022-09-03T14:55:18;0.20;;;0.10;;
34567;SDS011;20806;50.746;7.116;2022-09-03T15:00:35;0.13;;;0.10;;
34567;SDS011;20806;50.746;7.116;2022-09-03T15:03:12;0.20;;;0.20;;
34567;SDS011;20806;50.746;7.116;2022-09-03T15:08:28;0.30;;;0.30;;
34567;SDS011;20806;50.746;7.116;2022-09-03T15:10:58;0.70;;;0.30;;
34567;SDS011;20806;50.746;7.116;2022-09-03T15:13:28;0.32;;;0.32;;
34567;SDS011;20806;50.746;7.116;2022-09-03T15:16:19;0.50;;;0.35;;
34567;SDS011;20806;50.746;7.116;2022-09-03T15:21:44;0.28;;;0.28;;
34567;SDS011;20806;50.746;7.116;2022-09-03T15:27:08;0.22;;;0.22;;
34567;SDS011;20806;50.746;7.116;2022-09-03T15:29:57;0.20;;;0.20;;
34567;SDS011;20806;50.746;7.116;2022-09-03T15:38:01;0.20;;;0.20;;
34567;SDS011;20806;50.746;7.116;2022-09-03T15:42:59;0.90;;;0.30;;
34567;SDS011;20806;50.746;7.116;2022-09-03T15:47:55;0.80;;;0.40;;
34567;SDS011;20806;50.746;7.116;2022-09-03T15:50:33;0.40;;;0.32;;
34567;SDS011;20806;50.746;7.116;2022-09-03T15:55:49;1.10;;;0.30;;
34567;SDS011;20806;50.746;7.116;2022-09-03T15:58:33;0.60;;;0.30;;
34567;SDS011;20806;50.746;7.116;2022-09-03T16:01:05;0.30;;;0.30;;
34567;SDS011;20806;50.746;7.116;2022-09-03T16:03:37;0.70;;;0.30;;
34567;SDS011;20806;50.746;7.116;2022-09-03T16:09:50;0.30;;;0.30;;
34567;SDS011;20806;50.746;7.116;2022-09-03T16:11:55;0.40;;;0.40;;
34567;SDS011;20806;50.746;7.116;2022-09-03T16:14:37;0.32;;;0.32;;
34567;SDS011;20806;50.746;7.116;2022-09-03T16:20:03;0.30;;;0.30;;
34567;SDS011;20806;50.746;7.116;2022-09-03T16:22:32;1.10;;;0.60;;
34567;SDS011;20806;50.746;7.116;2022-09-03T16:25:07;0.80;;;0.40;;
34567;SDS011;20806;50.746;7.116;2022-09-03T16:27:54;0.70;;;0.50;;
34567;SDS011;20806;50.746;7.116;2022-09-03T16:31:10;0.40;;;0.40;;
34567;SDS011;20806;50.746;7.116;2022-09-03T16:43:32;21.58;;;11.45;;
34567;SDS011;20806;50.746;7.116;2022-09-03T16:51:26;13.60;;;7.97;;
34567;SDS011;20806;50.746;7.116;2022-09-03T16:54:05;8.77;;;6.10;;
34567;SDS011;20806;50.746;7.116;2022-09-03T16:59:02;7.05;;;4.20;;
34567;SDS011;20806;50.746;7.116;2022-09-03T17:14:37;2.10;;;1.40;;
34567;SDS011;20806;50.746;7.116;2022-09-03T17:24:50;1.58;;;0.70;;
34567;SDS011;20806;50.746;7.116;2022-09-03T17:53:20;0.70;;;0.47;;
34567;SDS011;20806;50.746;7.116;2022-09-03T17:56:00;0.35;;;0.35;;
34567;SDS011;20806;50.746;7.116;2022-09-03T17:58:34;0.63;;;0.35;;
34567;SDS011;20806;50.746;7.116;2022-09-03T18:01:11;0.47;;;0.40;;
34567;SDS011;20806;50.746;7.116;2022-09-03T18:08:51;0.40;;;0.30;;
34567;SDS011;20806;50.746;7.116;2022-09-03T18:11:21;0.40;;;0.40;;
34567;SDS011;20806;50.746;7.116;2022-09-03T18:16:34;0.35;;;0.30;;
34567;SDS011;20806;50.746;7.116;2022-09-03T18:19:05;0.30;;;0.30;;
34567;SDS011;20806;50.746;7.116;2022-09-03T18:21:42;0.60;;;0.30;;
34567;SDS011;20806;50.746;7.116;2022-09-03T18:24:28;0.60;;;0.30;;
34567;SDS011;20806;50.746;7.116;2022-09-03T18:27:17;0.30;;;0.30;;
34567;SDS011;20806;50.746;7.116;2022-09-03T18:30:09;0.30;;;0.30;;
34567;SDS011;20806;50.746;7.116;2022-09-03T18:32:55;0.20;;;0.20;;
34567;SDS011;20806;50.746;7.116;2022-09-03T18:35:42;0.30;;;0.30;;
34567;SDS011;20806;50.746;7.116;2022-09-03T18:38:31;0.25;;;0.25;;
34567;SDS011;20806;50.746;7.116;2022-09-03T18:52:20;0.30;;;0.30;;
34567;SDS011;20806;50.746;7.116;2022-09-03T18:55:14;0.25;;;0.25;;
34567;SDS011;20806;50.746;7.116;2022-09-03T19:01:07;0.40;;;0.20;;
34567;SDS011;20806;50.746;7.116;2022-09-03T19:06:47;0.20;;;0.20;;
34567;SDS011;20806;50.746;7.116;2022-09-03T19:09:36;0.30;;;0.30;;
34567;SDS011;20806;50.746;7.116;2022-09-03T19:16:08;0.22;;;0.22;;
34567;SDS011;20806;50.746;7.116;2022-09-03T19:21:54;0.30;;;0.25;;
34567;SDS011;20806;50.746;7.116;2022-09-03T19:24:40;0.50;;;0.22;;
34567;SDS011;20806;50.746;7.116;2022-09-03T19:27:28;0.30;;;0.30;;
34567;SDS011;20806;50.746;7.116;2022-09-03T19:30:17;0.40;;;0.20;;
34567;SDS011;20806;50.746;7.116;2022-09-03T19:39:07;0.35;;;0.20;;
34567;SDS011;20806;50.746;7.116;2022-09-03T19:44:44;1.10;;;0.30;;
34567;SDS011;20806;50.746;7.116;2022-09-03T19:47:39;0.20;;;0.20;;
34567;SDS011;20806;50.746;7.116;2022-09-03T19:50:28;0.23;;;0.23;;
34567;SDS011;20806;50.746;7.116;2022-09-03T19:53:16;0.50;;;0.30;;
34567;SDS011;20806;50.746;7.116;2022-09-03T19:56:06;0.30;;;0.30;;
34567;SDS011;20806;50.746;7.116;2022-09-03T19:58:57;0.30;;;0.30;;
34567;SDS011;20806;50.746;7.116;2022-09-03T20:01:43;0.50;;;0.50;;
34567;SDS011;20806;50.746;7.116;2022-09-03T20:04:30;1.23;;;0.40;;
34567;SDS011;20806;50.746;7.116;2022-09-03T20:07:15;0.68;;;0.43;;
34567;SDS011;20806;50.746;7.116;2022-09-03T20:10:02;0.40;;;0.40;;
34567;SDS011;20806;50.746;7.116;2022-09-03T20:15:16;0.43;;;0.43;;
34567;SDS011;20806;50.746;7.116;2022-09-03T20:17:55;0.60;;;0.50;;
34567;SDS011;20806;50.746;7.116;2022-09-03T20:20:31;0.50;;;0.50;;
34567;SDS011;20806;50.746;7.116;2022-09-03T20:23:02;0.50;;;0.50;;
34567;SDS011;20806;50.746;7.116;2022-09-03T20:25:36;0.40;;;0.40;;
34567;SDS011;20806;50.746;7.116;2022-09-03T20:33:08;0.40;;;0.40;;
34567;SDS011;20806;50.746;7.116;2022-09-03T20:40:45;0.40;;;0.30;;
34567;SDS011;20806;50.746;7.116;2022-09-03T20:48:35;0.30;;;0.30;;
34567;SDS011;20806;50.746;7.116;2022-09-03T20:56:15;0.40;;;0.40;;
34567;SDS011;20806;50.746;7.116;2022-09-03T20:58:50;0.40;;;0.40;;
34567;SDS011;20806;50.746;7.116;2022-09-03T21:01:26;0.30;;;0.30;;
34567;SDS011;20806;50.746;7.116;2022-09-03T21:06:41;0.35;;;0.35;;